Time;durP1;ratioP1;P1;durP2;ratioP2;P2;SDS_P1;SDS_P2;PMS_P1;PMS_P2;Temp;Humidity;BMP_temperature;BMP_pressure;BME280_temperature;BME280_humidity;BME280_pressure;Samples;Min_cycle;Max_cycle;Signal;HPM_P1;HPM_P2
2022/11/09 00:01:34;;;;;;;2.90;2.58;;;11.10;99.90;;;;;;5045559;28;20221;-69
2022/11/09 00:04:04;;;;;;;3.65;2.63;;;11.00;99.90;;;;;;5046075;28;20205;-69
2022/11/09 00:06:31;;;;;;;2.40;2.15;;;10.90;99.90;;;;;;5046474;28;20839;-69
2022/11/09 00:09:00;;;;;;;2.45;2.25;;;10.90;99.90;;;;;;5045933;28;20209;-69
2022/11/09 00:11:26;;;;;;;2.28;2.08;;;10.90;99.90;;;;;;5046244;28;20205;-68
2022/11/09 00:13:53;;;;;;;2.70;2.20;;;10.90;99.90;;;;;;5045859;28;20209;-69
2022/11/09 00:16:21;;;;;;;2.08;1.88;;;10.90;99.90;;;;;;5046229;28;20627;-69
2022/11/09 00:18:49;;;;;;;3.00;2.55;;;11.00;99.90;;;;;;5046389;28;20205;-69
2022/11/09 00:21:18;;;;;;;3.05;2.35;;;11.10;99.90;;;;;;5045622;28;20225;-68
2022/11/09 00:23:45;;;;;;;2.45;1.92;;;11.10;99.90;;;;;;5046244;28;20201;-69
2022/11/09 00:26:14;;;;;;;2.35;2.15;;;11.10;99.90;;;;;;5047992;28;20303;-69
2022/11/09 00:28:41;;;;;;;5.38;2.97;;;11.10;99.90;;;;;;5050115;28;20232;-69
2022/11/09 00:31:10;;;;;;;2.92;2.40;;;11.10;99.90;;;;;;5049545;28;20200;-69
2022/11/09 00:33:37;;;;;;;2.58;2.38;;;11.00;99.90;;;;;;5050250;28;20220;-69
2022/11/09 00:36:07;;;;;;;3.15;2.10;;;11.00;99.90;;;;;;5050431;28;20225;-69
2022/11/09 00:38:36;;;;;;;3.78;2.78;;;11.00;99.90;;;;;;5048919;28;20275;-68
2022/11/09 00:41:03;;;;;;;2.88;2.28;;;10.90;99.90;;;;;;5049600;28;20226;-69
2022/11/09 00:43:30;;;;;;;2.65;2.40;;;10.90;99.90;;;;;;5049813;28;20220;-69
2022/11/09 00:45:57;;;;;;;3.17;2.22;;;10.80;99.90;;;;;;5050197;28;20226;-69
2022/11/09 00:48:23;;;;;;;3.22;2.92;;;10.80;99.90;;;;;;5050188;28;20645;-69
2022/11/09 00:50:50;;;;;;;2.40;2.20;;;10.80;99.90;;;;;;5048805;28;20212;-69
2022/11/09 00:53:18;;;;;;;3.28;2.97;;;10.80;99.90;;;;;;5049846;28;20228;-69
2022/11/09 00:55:55;;;;;;;2.70;2.50;;;10.70;99.90;;;;;;5049214;28;20225;-69
2022/11/09 00:58:22;;;;;;;2.60;2.05;;;10.80;99.90;;;;;;5049860;28;20209;-69
2022/11/09 01:00:48;;;;;;;2.55;1.83;;;10.80;99.90;;;;;;5048658;28;20316;-69
2022/11/09 01:03:15;;;;;;;3.05;2.53;;;10.80;99.90;;;;;;5049545;28;20206;-69
2022/11/09 01:05:42;;;;;;;2.83;2.28;;;10.80;99.90;;;;;;5049298;28;20236;-69
2022/11/09 01:08:10;;;;;;;3.35;2.70;;;10.80;99.90;;;;;;5049295;28;20209;-69
2022/11/09 01:10:41;;;;;;;2.10;1.90;;;10.80;99.90;;;;;;5048732;28;20216;-69
2022/11/09 01:13:10;;;;;;;1.60;1.50;;;10.80;99.90;;;;;;5048724;28;20252;-69
2022/11/09 01:15:41;;;;;;;1.77;1.67;;;10.90;99.90;;;;;;5048827;28;20793;-69
2022/11/09 01:18:08;;;;;;;2.58;1.90;;;11.00;99.90;;;;;;5049478;28;20206;-69
2022/11/09 01:20:38;;;;;;;2.80;1.90;;;11.20;99.90;;;;;;5048908;28;20288;-69
2022/11/09 01:23:05;;;;;;;2.72;1.85;;;11.30;99.90;;;;;;5049555;28;20206;-69
2022/11/09 01:25:32;;;;;;;1.77;1.67;;;11.40;99.90;;;;;;5049575;28;20260;-68
2022/11/09 01:27:59;;;;;;;1.55;1.45;;;11.50;99.90;;;;;;5049089;28;20213;-69
2022/11/09 01:30:27;;;;;;;2.58;1.85;;;11.60;99.90;;;;;;5048457;28;20201;-68
2022/11/09 01:32:55;;;;;;;1.75;1.65;;;11.70;99.90;;;;;;5049403;28;20205;-69
2022/11/09 01:35:22;;;;;;;1.70;1.60;;;11.80;99.90;;;;;;5049210;28;20229;-69
2022/11/09 01:37:49;;;;;;;3.17;1.55;;;11.80;99.90;;;;;;5048047;28;20216;-69
2022/11/09 01:40:16;;;;;;;2.83;2.10;;;11.90;99.90;;;;;;5048258;28;20279;-69
2022/11/09 01:42:43;;;;;;;1.80;1.70;;;12.00;99.90;;;;;;5048779;28;20209;-70
2022/11/09 01:45:23;;;;;;;3.13;1.63;;;12.00;99.90;;;;;;5048828;28;20796;-69
2022/11/09 01:47:58;;;;;;;3.28;1.85;;;12.10;99.90;;;;;;5048943;28;20205;-68
2022/11/09 01:50:33;;;;;;;3.00;1.85;;;12.10;99.90;;;;;;5048705;28;20944;-69
2022/11/09 01:53:01;;;;;;;1.70;1.57;;;12.10;99.90;;;;;;5048005;28;20232;-69
2022/11/09 01:55:29;;;;;;;2.45;1.90;;;12.20;99.90;;;;;;5048935;28;20490;-69
2022/11/09 01:58:01;;;;;;;1.80;1.70;;;12.20;99.90;;;;;;5048941;28;20209;-69
2022/11/09 02:00:29;;;;;;;2.10;2.00;;;12.20;99.90;;;;;;5047927;28;20614;-70
2022/11/09 02:03:02;;;;;;;1.87;1.67;;;12.20;99.90;;;;;;5049010;28;20499;-69
2022/11/09 02:05:33;;;;;;;1.90;1.80;;;12.30;99.90;;;;;;5048675;28;20476;-69
2022/11/09 02:08:02;;;;;;;3.25;1.60;;;12.30;99.90;;;;;;5049082;28;20975;-69
2022/11/09 02:10:34;;;;;;;2.53;2.00;;;12.30;99.90;;;;;;5048547;28;20227;-69
2022/11/09 02:13:03;;;;;;;2.70;1.67;;;12.30;99.90;;;;;;5049362;28;20236;-69
2022/11/09 02:15:30;;;;;;;2.30;2.00;;;12.30;99.90;;;;;;5049742;28;20484;-69
2022/11/09 02:17:59;;;;;;;3.50;1.80;;;12.30;99.90;;;;;;5049992;28;20464;-69
2022/11/09 02:20:28;;;;;;;1.43;1.33;;;12.40;99.90;;;;;;5048184;28;20566;-69
2022/11/09 02:22:55;;;;;;;2.50;2.03;;;12.40;99.90;;;;;;5109917;22;20492;-65
2022/11/09 02:25:22;;;;;;;3.10;2.00;;;12.40;99.90;;;;;;5043141;28;20472;-65
2022/11/09 02:27:49;;;;;;;2.30;1.85;;;12.40;99.90;;;;;;5051676;28;20457;-66
2022/11/09 02:30:19;;;;;;;1.80;1.70;;;12.40;99.90;;;;;;5050370;28;20209;-65
2022/11/09 02:32:46;;;;;;;4.15;1.83;;;12.40;99.90;;;;;;5031560;28;20843;-65
2022/11/09 02:35:13;;;;;;;2.17;1.77;;;12.40;99.90;;;;;;5031235;28;20717;-65
2022/11/09 02:37:47;;;;;;;1.77;1.50;;;12.50;99.90;;;;;;5031883;28;20527;-65
2022/11/09 02:40:17;;;;;;;4.67;2.30;;;12.60;99.90;;;;;;5030999;28;20484;-63
2022/11/09 02:42:44;;;;;;;1.48;1.38;;;12.60;99.90;;;;;;5032120;28;20461;-66
2022/11/09 02:47:38;;;;;;;2.20;1.50;;;12.60;99.90;;;;;;5100440;22;20495;-66
2022/11/09 02:50:06;;;;;;;1.60;1.50;;;12.60;99.90;;;;;;5070870;28;20451;-66
2022/11/09 02:52:32;;;;;;;3.60;1.70;;;12.70;99.90;;;;;;5070321;28;20456;-66
2022/11/09 02:55:01;;;;;;;2.33;2.13;;;12.70;99.90;;;;;;5071395;28;21006;-66
2022/11/09 02:57:27;;;;;;;2.10;1.80;;;12.70;99.90;;;;;;5070942;28;20206;-66
2022/11/09 02:59:54;;;;;;;2.50;1.80;;;12.70;99.90;;;;;;5070973;28;20459;-66
2022/11/09 03:02:21;;;;;;;1.50;1.40;;;12.70;99.90;;;;;;5070818;28;20853;-67
2022/11/09 03:04:48;;;;;;;2.33;1.97;;;12.70;99.90;;;;;;5070688;28;20574;-66
2022/11/09 03:07:15;;;;;;;2.50;1.63;;;12.70;99.90;;;;;;5071177;28;20466;-67
2022/11/09 03:09:41;;;;;;;1.93;1.83;;;12.70;99.90;;;;;;5070626;28;20466;-67
2022/11/09 03:14:53;;;;;;;5.13;2.63;;;12.70;99.90;;;;;;5070865;28;20551;-66
2022/11/09 03:17:20;;;;;;;2.33;1.90;;;12.60;99.90;;;;;;5070812;28;20459;-67
2022/11/09 03:19:47;;;;;;;2.60;2.13;;;12.50;99.90;;;;;;5070674;28;20463;-66
2022/11/09 03:22:14;;;;;;;3.47;2.20;;;12.40;99.90;;;;;;5069739;28;20478;-67
2022/11/09 03:24:41;;;;;;;2.67;2.40;;;12.40;99.90;;;;;;5070566;28;20475;-66
2022/11/09 03:27:09;;;;;;;2.97;2.30;;;12.30;99.90;;;;;;5070959;28;20455;-65
2022/11/09 03:29:36;;;;;;;2.73;2.40;;;12.20;99.90;;;;;;5070858;28;20459;-66
2022/11/09 03:32:02;;;;;;;2.47;2.27;;;12.20;99.90;;;;;;5070335;28;20455;-66
2022/11/09 03:34:29;;;;;;;3.22;2.70;;;12.10;99.90;;;;;;5070374;28;20456;-67
2022/11/09 03:36:56;;;;;;;2.60;2.40;;;12.00;99.90;;;;;;5070628;28;20209;-66
2022/11/09 03:39:22;;;;;;;2.45;1.90;;;12.00;99.90;;;;;;5070261;28;20463;-66
2022/11/09 03:41:50;;;;;;;3.03;2.73;;;11.90;99.90;;;;;;5069892;28;20225;-66
2022/11/09 03:44:18;;;;;;;2.77;2.40;;;11.90;99.90;;;;;;5070601;28;20963;-66
2022/11/09 03:46:45;;;;;;;2.97;2.67;;;11.80;99.90;;;;;;5070000;28;20471;-66
2022/11/09 03:49:12;;;;;;;4.00;2.55;;;11.80;99.90;;;;;;5070597;28;20201;-66
2022/11/09 03:51:39;;;;;;;2.10;1.92;;;11.70;99.90;;;;;;5069315;28;20679;-66
2022/11/09 03:54:05;;;;;;;2.50;2.10;;;11.60;99.90;;;;;;5070144;28;20219;-65
2022/11/09 03:56:32;;;;;;;2.75;2.13;;;11.60;99.90;;;;;;5070415;28;20221;-66
2022/11/09 03:58:59;;;;;;;2.90;2.53;;;11.60;99.90;;;;;;5069629;28;20652;-66
2022/11/09 04:01:27;;;;;;;2.90;1.97;;;11.50;99.90;;;;;;5069825;28;20227;-67
2022/11/09 04:03:54;;;;;;;3.15;2.50;;;11.40;99.90;;;;;;5069870;28;20459;-66
2022/11/09 04:06:20;;;;;;;2.17;1.85;;;11.40;99.90;;;;;;5070382;28;20228;-67
2022/11/09 04:08:47;;;;;;;2.72;2.30;;;11.30;99.90;;;;;;5070128;28;20209;-66
2022/11/09 04:11:14;;;;;;;3.28;1.98;;;11.20;99.90;;;;;;5069511;28;20202;-67
2022/11/09 04:13:41;;;;;;;4.40;2.25;;;11.20;99.90;;;;;;5070208;28;20224;-66
2022/11/09 04:16:08;;;;;;;3.22;2.40;;;11.20;99.90;;;;;;5069737;28;20225;-66
2022/11/09 04:18:36;;;;;;;2.67;2.42;;;11.10;99.90;;;;;;5070388;28;20205;-66
2022/11/09 04:21:03;;;;;;;4.00;2.50;;;11.10;99.90;;;;;;5069416;28;20248;-66
2022/11/09 04:23:29;;;;;;;3.55;2.47;;;11.10;99.90;;;;;;5069874;28;20197;-65
2022/11/09 04:25:58;;;;;;;3.90;2.83;;;11.10;99.90;;;;;;5069917;28;20236;-66
2022/11/09 04:28:25;;;;;;;3.08;2.40;;;11.10;99.90;;;;;;5069800;28;20726;-66
2022/11/09 04:30:52;;;;;;;3.33;2.97;;;11.10;99.90;;;;;;5069378;28;20197;-66
2022/11/09 04:33:18;;;;;;;2.90;2.22;;;11.00;99.90;;;;;;5064040;28;20211;-66
2022/11/09 04:35:46;;;;;;;4.28;3.05;;;11.00;99.90;;;;;;5031752;28;20214;-66
2022/11/09 04:38:14;;;;;;;3.25;2.45;;;11.00;99.90;;;;;;5038614;28;20195;-66
2022/11/09 04:40:40;;;;;;;3.30;2.63;;;11.00;99.90;;;;;;5036958;28;20397;-66
2022/11/09 04:43:11;;;;;;;2.22;2.03;;;10.90;99.90;;;;;;5039700;28;20572;-66
2022/11/09 04:45:38;;;;;;;3.35;2.80;;;10.90;99.90;;;;;;5038666;28;20218;-65
2022/11/09 04:48:07;;;;;;;4.10;3.08;;;10.80;99.90;;;;;;5037587;28;20202;-68
2022/11/09 04:50:34;;;;;;;3.17;2.20;;;10.70;99.90;;;;;;5038489;28;20209;-67
2022/11/09 04:53:07;;;;;;;4.10;3.13;;;10.70;99.90;;;;;;5033786;28;20576;-66
2022/11/09 04:55:34;;;;;;;3.22;2.60;;;10.60;99.90;;;;;;5046923;28;20218;-66
2022/11/09 04:58:01;;;;;;;2.70;2.50;;;10.50;99.90;;;;;;5048160;28;20270;-67
2022/11/09 05:00:27;;;;;;;3.17;2.50;;;10.50;99.90;;;;;;5048768;28;20554;-67
2022/11/09 05:02:54;;;;;;;3.63;2.70;;;10.40;99.90;;;;;;5042801;28;20214;-67
2022/11/09 05:05:21;;;;;;;3.22;2.92;;;10.40;99.90;;;;;;5028659;28;20218;-67
2022/11/09 05:07:48;;;;;;;2.90;2.53;;;10.40;99.90;;;;;;5029368;28;20685;-67
2022/11/09 05:10:16;;;;;;;2.38;2.17;;;10.40;99.90;;;;;;5029033;28;20579;-67
2022/11/09 05:12:43;;;;;;;4.22;3.10;;;10.40;99.90;;;;;;5037011;28;20235;-67
2022/11/09 05:15:10;;;;;;;3.95;3.03;;;10.40;99.90;;;;;;5044371;28;20210;-67
2022/11/09 05:17:37;;;;;;;2.53;2.25;;;10.40;99.90;;;;;;5038318;28;20199;-67
2022/11/09 05:20:04;;;;;;;2.50;2.30;;;10.40;99.90;;;;;;5039912;28;20295;-67
2022/11/09 05:25:17;;;;;;;3.00;2.70;;;10.40;99.90;;;;;;5032537;28;20225;-65
2022/11/09 05:27:44;;;;;;;2.40;2.05;;;10.40;99.90;;;;;;5051781;28;20197;-69
2022/11/09 05:30:12;;;;;;;3.60;2.78;;;10.40;99.90;;;;;;5053073;28;20202;-68
2022/11/09 05:32:39;;;;;;;4.22;2.92;;;10.50;99.90;;;;;;5052824;28;20193;-68
2022/11/09 05:35:07;;;;;;;2.92;2.47;;;10.50;99.90;;;;;;5052459;28;20222;-67
2022/11/09 05:37:33;;;;;;;3.03;2.72;;;10.50;99.90;;;;;;5053188;28;20201;-67
2022/11/09 05:40:00;;;;;;;4.32;2.90;;;10.60;99.90;;;;;;5052341;28;20236;-68
2022/11/09 05:42:28;;;;;;;2.95;2.65;;;10.60;99.90;;;;;;5052374;28;20225;-68
2022/11/09 05:44:55;;;;;;;3.58;2.63;;;10.60;99.90;;;;;;5052379;28;20228;-68
2022/11/09 05:47:22;;;;;;;2.92;2.45;;;10.60;99.90;;;;;;5052585;28;20244;-68
2022/11/09 05:49:49;;;;;;;3.35;2.72;;;10.60;99.90;;;;;;5052558;28;20214;-68
2022/11/09 05:52:16;;;;;;;2.88;2.40;;;10.50;99.90;;;;;;5052042;28;20202;-68
2022/11/09 05:54:42;;;;;;;3.00;2.42;;;10.50;99.90;;;;;;5052522;28;20591;-67
2022/11/09 05:57:09;;;;;;;2.92;2.72;;;10.50;99.90;;;;;;5052162;28;20198;-69
2022/11/09 05:59:37;;;;;;;5.22;2.28;;;10.50;99.90;;;;;;5052432;28;20204;-69
2022/11/09 06:02:04;;;;;;;3.38;2.60;;;10.50;99.90;;;;;;5052007;28;20218;-68
2022/11/09 06:04:31;;;;;;;2.50;2.30;;;10.50;99.90;;;;;;5052204;28;20691;-69
2022/11/09 06:06:57;;;;;;;3.22;2.63;;;10.50;99.90;;;;;;5052406;28;20213;-67
2022/11/09 06:09:24;;;;;;;2.42;2.13;;;10.40;99.90;;;;;;5052337;28;20208;-68
2022/11/09 06:11:51;;;;;;;4.95;2.63;;;10.40;99.90;;;;;;5051456;28;20226;-70
2022/11/09 06:14:18;;;;;;;4.30;2.80;;;10.40;99.90;;;;;;5052360;28;20578;-68
2022/11/09 06:16:46;;;;;;;3.28;2.30;;;10.50;99.90;;;;;;5051862;28;20575;-67
2022/11/09 06:19:12;;;;;;;3.10;2.35;;;10.50;99.90;;;;;;5052138;28;20209;-68
2022/11/09 06:21:39;;;;;;;3.05;2.75;;;10.50;99.90;;;;;;5050723;28;20822;-68
2022/11/09 06:24:07;;;;;;;3.70;2.28;;;10.50;99.90;;;;;;5050032;28;20213;-68
2022/11/09 06:26:33;;;;;;;3.00;2.70;;;10.50;99.90;;;;;;5050591;28;20226;-68
2022/11/09 06:29:00;;;;;;;2.80;1.98;;;10.50;99.90;;;;;;5050817;28;20720;-67
2022/11/09 06:31:28;;;;;;;3.40;2.65;;;10.50;99.90;;;;;;5051931;28;20194;-69
2022/11/09 06:33:56;;;;;;;3.22;2.40;;;10.60;99.90;;;;;;5052226;28;20251;-67
2022/11/09 06:36:23;;;;;;;4.57;2.60;;;10.50;99.90;;;;;;5052702;28;20232;-67
2022/11/09 06:38:50;;;;;;;3.40;2.72;;;10.50;99.90;;;;;;5052036;28;20228;-66
2022/11/09 06:41:18;;;;;;;3.05;2.80;;;10.50;99.90;;;;;;5051720;28;20202;-67
2022/11/09 06:43:45;;;;;;;2.85;2.30;;;10.60;99.90;;;;;;5053102;28;20742;-71
2022/11/09 06:46:13;;;;;;;3.58;2.13;;;10.60;99.90;;;;;;5052610;28;20229;-66
2022/11/09 06:48:40;;;;;;;4.18;2.80;;;10.60;99.90;;;;;;5052679;28;20208;-70
2022/11/09 06:51:09;;;;;;;2.20;2.00;;;10.60;99.90;;;;;;5052092;28;20212;-67
2022/11/09 06:53:37;;;;;;;2.60;2.40;;;10.50;99.90;;;;;;5051799;28;20205;-67
2022/11/09 06:56:05;;;;;;;2.78;2.30;;;10.60;99.90;;;;;;5051582;28;20232;-68
2022/11/09 06:58:33;;;;;;;5.40;2.55;;;10.60;99.90;;;;;;5051669;28;20300;-68
2022/11/09 07:01:00;;;;;;;3.45;2.47;;;10.60;99.90;;;;;;5052034;28;20315;-66
2022/11/09 07:03:27;;;;;;;2.80;1.80;;;10.60;99.90;;;;;;5054205;28;20218;-68
2022/11/09 07:05:53;;;;;;;3.95;2.60;;;10.60;99.90;;;;;;5053018;28;20222;-66
2022/11/09 07:11:02;;;;;;;2.72;2.33;;;10.60;99.90;;;;;;5013536;28;20221;-67
2022/11/09 07:13:28;;;;;;;3.15;2.28;;;10.70;99.90;;;;;;5012073;28;20685;-66
2022/11/09 07:15:55;;;;;;;2.83;2.53;;;10.70;99.90;;;;;;5012451;28;20226;-68
2022/11/09 07:18:22;;;;;;;3.38;2.53;;;10.70;99.90;;;;;;5011948;28;20599;-67
2022/11/09 07:20:49;;;;;;;2.22;2.03;;;10.80;99.90;;;;;;5011427;28;20273;-66
2022/11/09 07:23:16;;;;;;;2.55;2.00;;;10.80;99.90;;;;;;5013099;28;20225;-67
2022/11/09 07:25:43;;;;;;;2.67;2.47;;;10.80;99.90;;;;;;5013976;28;20219;-67
2022/11/09 07:28:12;;;;;;;3.20;2.20;;;10.80;99.90;;;;;;5024854;28;20455;-67
2022/11/09 07:30:39;;;;;;;2.60;2.40;;;10.80;99.90;;;;;;5022678;28;20656;-67
2022/11/09 07:33:13;;;;;;;3.38;2.38;;;10.80;99.90;;;;;;5022016;28;20218;-66
2022/11/09 07:35:40;;;;;;;3.95;2.53;;;10.80;99.90;;;;;;5021502;28;20218;-67
2022/11/09 07:38:07;;;;;;;2.78;2.20;;;10.80;99.90;;;;;;5024416;28;20585;-66
2022/11/09 07:40:34;;;;;;;2.83;2.50;;;10.90;99.90;;;;;;5022432;28;20202;-67
2022/11/09 07:43:01;;;;;;;2.75;2.55;;;10.90;99.90;;;;;;5025536;28;20283;-68
2022/11/09 07:45:30;;;;;;;2.67;2.47;;;10.90;99.90;;;;;;5032009;28;20230;-72
2022/11/09 07:47:58;;;;;;;2.47;2.28;;;10.90;99.90;;;;;;5031323;28;20217;-67
2022/11/09 07:50:25;;;;;;;3.22;2.45;;;10.90;99.90;;;;;;5031316;28;20202;-66
2022/11/09 07:52:52;;;;;;;5.40;2.50;;;11.00;99.90;;;;;;5031480;28;20285;-67
2022/11/09 07:55:19;;;;;;;2.97;2.60;;;11.10;99.90;;;;;;5030933;28;20222;-65
2022/11/09 07:57:46;;;;;;;3.13;2.80;;;11.10;99.90;;;;;;5033194;28;20207;-65
2022/11/09 08:00:17;;;;;;;3.83;3.00;;;11.00;99.90;;;;;;5031600;28;20796;-68
2022/11/09 08:02:49;;;;;;;3.80;2.67;;;11.10;99.90;;;;;;5031278;28;20885;-67
2022/11/09 08:05:16;;;;;;;3.60;3.00;;;11.10;99.90;;;;;;5031862;28;20317;-67
2022/11/09 08:07:42;;;;;;;3.88;3.20;;;11.10;99.90;;;;;;5031873;28;20222;-67
2022/11/09 08:10:10;;;;;;;2.58;2.38;;;11.00;99.90;;;;;;5031699;28;20666;-66
2022/11/09 08:12:36;;;;;;;3.33;3.03;;;11.00;99.90;;;;;;5030359;28;20296;-66
2022/11/09 08:15:04;;;;;;;3.00;2.70;;;11.00;99.90;;;;;;5031873;28;20222;-67
2022/11/09 08:17:31;;;;;;;3.30;2.50;;;11.10;99.90;;;;;;5032628;28;20218;-67
2022/11/09 08:20:00;;;;;;;2.75;2.55;;;11.00;99.90;;;;;;5031868;28;20205;-67
2022/11/09 08:24:55;;;;;;;4.15;2.58;;;11.00;99.90;;;;;;5013426;28;20223;-69
2022/11/09 08:27:22;;;;;;;2.55;2.25;;;11.00;99.90;;;;;;4991636;28;20211;-69
2022/11/09 08:29:49;;;;;;;3.58;2.40;;;11.10;99.90;;;;;;4990760;28;20270;-68
2022/11/09 08:32:16;;;;;;;2.55;1.90;;;11.10;99.90;;;;;;4990433;28;20577;-69
2022/11/09 08:34:47;;;;;;;2.53;2.30;;;11.10;99.90;;;;;;4991025;28;20223;-68
2022/11/09 08:37:15;;;;;;;2.15;1.95;;;11.10;99.90;;;;;;4990784;28;20211;-69
2022/11/09 08:39:42;;;;;;;2.35;2.00;;;11.10;99.90;;;;;;4991146;28;20203;-70
2022/11/09 08:42:08;;;;;;;2.95;1.90;;;11.20;99.90;;;;;;4989907;28;20227;-69
2022/11/09 08:44:35;;;;;;;3.15;1.77;;;11.20;99.90;;;;;;4987389;28;20594;-69
2022/11/09 08:47:02;;;;;;;2.15;1.95;;;11.20;99.90;;;;;;5004032;28;20199;-68
2022/11/09 08:49:29;;;;;;;5.55;2.17;;;11.30;99.90;;;;;;5012856;28;20214;-69
2022/11/09 08:51:56;;;;;;;2.13;1.92;;;11.30;99.90;;;;;;5012701;28;20199;-68
2022/11/09 08:54:24;;;;;;;2.47;2.28;;;11.30;99.90;;;;;;5013141;28;20541;-68
2022/11/09 08:56:54;;;;;;;2.28;1.80;;;11.40;99.90;;;;;;5013027;28;20202;-68
2022/11/09 08:59:21;;;;;;;4.03;1.30;;;11.40;99.90;;;;;;5012938;28;20666;-68
2022/11/09 09:01:47;;;;;;;5.32;1.67;;;11.40;99.90;;;;;;5011781;28;20212;-69
2022/11/09 09:04:14;;;;;;;1.85;1.65;;;11.50;99.90;;;;;;5013167;28;20206;-69
2022/11/09 09:06:41;;;;;;;3.05;1.63;;;11.60;99.90;;;;;;5012874;28;20210;-69
2022/11/09 09:09:07;;;;;;;2.97;1.65;;;11.60;99.90;;;;;;5012629;28;20199;-68
2022/11/09 09:11:35;;;;;;;2.10;1.75;;;11.60;99.90;;;;;;5012310;28;20203;-67
2022/11/09 09:14:02;;;;;;;1.33;1.23;;;11.60;99.90;;;;;;5011694;28;20666;-67
2022/11/09 09:16:29;;;;;;;1.80;1.23;;;11.60;99.90;;;;;;5012483;28;20227;-67
2022/11/09 09:18:56;;;;;;;1.30;1.10;;;11.60;99.90;;;;;;5012485;28;20203;-68
2022/11/09 09:21:22;;;;;;;1.65;1.40;;;11.60;99.90;;;;;;5012076;28;20203;-68
2022/11/09 09:23:49;;;;;;;1.40;1.27;;;11.70;99.90;;;;;;5012193;28;20230;-66
2022/11/09 09:26:17;;;;;;;1.55;1.45;;;11.80;99.90;;;;;;5011935;28;20250;-67
2022/11/09 09:28:45;;;;;;;1.38;1.20;;;11.80;99.90;;;;;;5012047;28;20662;-67
2022/11/09 09:31:12;;;;;;;1.52;1.40;;;11.80;99.90;;;;;;5011783;28;20812;-67
2022/11/09 09:33:39;;;;;;;1.42;1.33;;;11.90;99.90;;;;;;5012743;28;20668;-67
2022/11/09 09:36:06;;;;;;;1.60;1.38;;;11.90;99.90;;;;;;5011765;28;20289;-68
2022/11/09 09:38:33;;;;;;;1.33;1.23;;;11.90;99.90;;;;;;5012038;28;20210;-68
2022/11/09 09:41:01;;;;;;;2.15;1.27;;;12.00;99.90;;;;;;5011456;28;20294;-68
2022/11/09 09:43:32;;;;;;;1.70;1.20;;;12.00;99.90;;;;;;5012207;28;20230;-69
2022/11/09 09:46:02;;;;;;;1.50;1.10;;;11.90;99.90;;;;;;5011506;28;20219;-68
2022/11/09 09:48:36;;;;;;;1.58;1.13;;;12.00;99.90;;;;;;5012275;28;20685;-67
2022/11/09 09:51:10;;;;;;;2.05;1.85;;;12.10;99.90;;;;;;5010569;28;20207;-68
2022/11/09 09:53:43;;;;;;;1.75;1.48;;;12.20;99.90;;;;;;5012116;28;20674;-68
2022/11/09 09:56:14;;;;;;;1.60;1.50;;;12.30;99.90;;;;;;5011604;28;20253;-68
2022/11/09 09:58:47;;;;;;;1.58;1.40;;;12.40;99.90;;;;;;5011324;28;20203;-68
2022/11/09 10:01:18;;;;;;;1.70;1.30;;;12.40;99.90;;;;;;5011531;28;20226;-69
2022/11/09 10:03:45;;;;;;;2.17;1.48;;;12.40;99.90;;;;;;5011457;28;20309;-68
2022/11/09 10:06:36;;;;;;;1.63;1.50;;;12.40;99.90;;;;;;5011499;28;20231;-69
2022/11/09 10:09:14;;;;;;;1.90;1.50;;;12.40;99.90;;;;;;5011724;28;20210;-68
2022/11/09 10:11:48;;;;;;;1.80;1.60;;;12.40;99.90;;;;;;5011246;28;20626;-68
2022/11/09 10:14:39;;;;;;;4.23;1.63;;;12.40;99.90;;;;;;5011140;28;20222;-69
2022/11/09 10:17:17;;;;;;;2.80;1.75;;;12.50;99.90;;;;;;5011539;28;20458;-69
2022/11/09 10:19:56;;;;;;;1.73;1.63;;;12.50;99.90;;;;;;5011686;28;20866;-69
2022/11/09 10:22:31;;;;;;;4.15;1.70;;;12.70;99.90;;;;;;5011267;28;20648;-68
2022/11/09 10:25:03;;;;;;;1.90;1.80;;;12.80;99.90;;;;;;4991885;28;20254;-69
2022/11/09 10:27:37;;;;;;;2.07;1.83;;;13.00;99.90;;;;;;4991757;28;20455;-67
2022/11/09 10:30:12;;;;;;;2.00;1.30;;;13.10;99.90;;;;;;4991680;28;20513;-67
2022/11/09 10:32:41;;;;;;;1.83;1.40;;;13.20;99.90;;;;;;4992699;28;21043;-67
2022/11/09 10:35:18;;;;;;;1.77;1.50;;;13.40;99.90;;;;;;5010743;28;20840;-68
2022/11/09 10:37:47;;;;;;;1.83;1.53;;;13.50;99.90;;;;;;5011470;28;20461;-67
2022/11/09 10:40:20;;;;;;;6.03;2.10;;;13.50;99.90;;;;;;4996110;28;20451;-69
2022/11/09 10:42:50;;;;;;;1.47;1.37;;;13.50;99.90;;;;;;4994527;28;20525;-69
2022/11/09 10:45:26;;;;;;;3.10;2.20;;;13.50;99.90;;;;;;5001225;28;20475;-69
2022/11/09 10:47:54;;;;;;;2.53;2.00;;;13.60;99.90;;;;;;4999122;28;20882;-68
2022/11/09 10:50:32;;;;;;;3.43;1.60;;;13.60;99.90;;;;;;4991140;28;20466;-68
2022/11/09 10:53:10;;;;;;;1.70;1.57;;;13.50;99.90;;;;;;4991334;28;20454;-69
2022/11/09 10:55:37;;;;;;;2.00;1.67;;;13.50;99.90;;;;;;4991713;28;20578;-70
2022/11/09 10:58:26;;;;;;;2.07;1.87;;;13.60;99.90;;;;;;4991137;28;20554;-72
2022/11/09 11:01:01;;;;;;;1.83;1.60;;;13.70;99.90;;;;;;4991233;28;20462;-69
2022/11/09 11:03:37;;;;;;;1.63;1.53;;;13.70;99.90;;;;;;4991503;28;20498;-75
2022/11/09 11:06:15;;;;;;;1.90;1.80;;;13.70;99.90;;;;;;4990883;28;20486;-72
2022/11/09 11:08:43;;;;;;;2.50;1.87;;;13.70;99.90;;;;;;4991232;28;20462;-69
2022/11/09 11:11:25;;;;;;;1.30;1.20;;;13.70;99.90;;;;;;4990338;28;20485;-69
2022/11/09 11:14:12;;;;;;;1.60;1.40;;;13.80;99.90;;;;;;4991222;28;20466;-70
2022/11/09 11:16:40;;;;;;;1.50;1.40;;;13.80;99.90;;;;;;5003973;28;20478;-69
2022/11/09 11:19:31;;;;;;;1.57;1.47;;;13.80;99.90;;;;;;5009970;28;20450;-70
2022/11/09 11:22:21;;;;;;;1.60;1.40;;;13.70;99.90;;;;;;5009718;28;20468;-70
2022/11/09 11:24:54;;;;;;;2.00;1.73;;;13.70;99.90;;;;;;5010404;28;20486;-68
2022/11/09 11:27:27;;;;;;;1.47;1.37;;;13.60;99.90;;;;;;5009927;28;20537;-69
2022/11/09 11:30:01;;;;;;;1.63;1.47;;;13.60;99.90;;;;;;5010223;28;20845;-69
2022/11/09 11:32:27;;;;;;;1.90;1.60;;;13.60;99.90;;;;;;5010086;28;20469;-69
2022/11/09 11:34:56;;;;;;;1.70;1.60;;;13.60;99.90;;;;;;5009765;28;20913;-68
2022/11/09 11:37:34;;;;;;;2.13;1.50;;;13.60;99.90;;;;;;5010648;28;20560;-68
2022/11/09 11:40:03;;;;;;;2.30;2.10;;;13.60;99.90;;;;;;5009646;28;20898;-69
2022/11/09 11:42:48;;;;;;;1.53;1.43;;;13.60;99.90;;;;;;5009430;28;20472;-69
2022/11/09 11:45:21;;;;;;;1.30;1.17;;;13.60;99.90;;;;;;5009560;28;20561;-69
2022/11/09 11:47:58;;;;;;;1.73;1.57;;;13.60;99.90;;;;;;5010346;28;20454;-68
2022/11/09 11:50:42;;;;;;;1.83;1.53;;;13.60;99.90;;;;;;5009195;28;20468;-69
2022/11/09 11:53:20;;;;;;;2.37;1.90;;;13.60;99.90;;;;;;5009333;28;20544;-68
2022/11/09 11:56:12;;;;;;;1.73;1.50;;;13.60;99.90;;;;;;5009967;28;20508;-69
2022/11/09 11:58:54;;;;;;;1.60;1.50;;;13.60;99.90;;;;;;5010096;28;20465;-69
2022/11/09 12:01:35;;;;;;;1.83;1.60;;;13.70;99.90;;;;;;5009847;28;20545;-72
2022/11/09 12:04:19;;;;;;;6.83;2.60;;;13.70;99.90;;;;;;5009723;28;20909;-70
2022/11/09 12:07:06;;;;;;;1.60;1.50;;;13.80;99.90;;;;;;4994282;28;20463;-69
2022/11/09 12:09:47;;;;;;;1.60;1.50;;;13.70;99.90;;;;;;5000222;28;20468;-69
2022/11/09 12:12:38;;;;;;;2.10;1.80;;;13.70;99.90;;;;;;5007178;28;20489;-69
2022/11/09 12:15:22;;;;;;;1.70;1.60;;;13.80;99.90;;;;;;5010292;28;20470;-69
2022/11/09 12:17:57;;;;;;;1.70;1.40;;;13.80;99.90;;;;;;5009669;28;20462;-67
2022/11/09 12:20:31;;;;;;;2.37;1.50;;;13.80;99.90;;;;;;5009994;28;20464;-69
2022/11/09 12:23:12;;;;;;;1.67;1.47;;;13.90;99.90;;;;;;5013813;28;20500;-69
2022/11/09 12:25:46;;;;;;;2.10;1.90;;;13.90;99.90;;;;;;5013691;28;20513;-68
2022/11/09 12:28:39;;;;;;;1.20;1.10;;;14.00;99.90;;;;;;5013958;28;20462;-70
2022/11/09 12:31:17;;;;;;;1.60;1.37;;;14.00;99.90;;;;;;5013690;28;20462;-68
2022/11/09 12:33:49;;;;;;;1.60;1.13;;;14.00;99.90;;;;;;5013743;28;20466;-69
2022/11/09 12:36:19;;;;;;;1.73;1.63;;;14.10;99.90;;;;;;5013876;28;20478;-69
2022/11/09 12:38:56;;;;;;;1.80;1.60;;;14.10;99.90;;;;;;5013869;28;20837;-71
2022/11/09 12:41:28;;;;;;;2.70;2.00;;;14.20;99.90;;;;;;5012686;28;20464;-69
2022/11/09 12:44:02;;;;;;;1.73;1.53;;;14.20;99.90;;;;;;5013506;28;20493;-70
2022/11/09 12:46:34;;;;;;;2.00;1.53;;;14.20;99.90;;;;;;5013724;28;20861;-68
2022/11/09 12:49:04;;;;;;;2.30;1.53;;;14.20;99.90;;;;;;5010074;28;20458;-69
2022/11/09 12:51:32;;;;;;;1.80;1.70;;;14.20;99.90;;;;;;5012842;28;20461;-68
2022/11/09 12:54:10;;;;;;;1.70;1.60;;;14.30;99.90;;;;;;5005381;28;20462;-69
2022/11/09 12:56:44;;;;;;;1.73;1.53;;;14.40;99.90;;;;;;4993354;28;20506;-69
2022/11/09 12:59:21;;;;;;;2.07;1.83;;;14.40;99.90;;;;;;4994117;28;20466;-68
2022/11/09 13:01:54;;;;;;;1.70;1.53;;;14.40;99.90;;;;;;4993151;28;20886;-69
2022/11/09 13:04:23;;;;;;;2.10;1.90;;;14.40;99.90;;;;;;4991390;28;20497;-68
2022/11/09 13:07:16;;;;;;;2.70;1.57;;;14.30;99.90;;;;;;4992466;28;20458;-68
2022/11/09 13:09:52;;;;;;;1.60;1.30;;;14.30;99.90;;;;;;4993100;28;20462;-68
2022/11/09 13:12:27;;;;;;;1.60;1.50;;;14.40;99.90;;;;;;4992186;28;20462;-68
2022/11/09 13:14:55;;;;;;;1.67;1.27;;;14.40;99.90;;;;;;4992576;28;20474;-68